sensor_id;sensor_type;location;lat;lon;timestamp;pressure;altitude;pressure_sealevel;temperature;humidity
60465;BME280;46314;52.392;9.758;2022-11-14T00:00:09;101288.06;;;8.08;82.74
60465;BME280;46314;52.392;9.758;2022-11-14T00:02:36;101289.13;;;7.54;83.56
60465;BME280;46314;52.392;9.758;2022-11-14T00:05:05;101290.94;;;7.38;84.62
60465;BME280;46314;52.392;9.758;2022-11-14T00:07:33;101282.84;;;7.64;83.23
60465;BME280;46314;52.392;9.758;2022-11-14T00:10:00;101287.75;;;7.52;84.00
60465;BME280;46314;52.392;9.758;2022-11-14T00:12:27;101284.47;;;7.55;84.76
60465;BME280;46314;52.392;9.758;2022-11-14T00:14:53;101273.78;;;7.31;85.35
60465;BME280;46314;52.392;9.758;2022-11-14T00:17:20;101273.06;;;7.09;85.65
60465;BME280;46314;52.392;9.758;2022-11-14T00:19:47;101269.78;;;7.12;85.87
60465;BME280;46314;52.392;9.758;2022-11-14T00:22:15;101270.88;;;7.11;86.18
60465;BME280;46314;52.392;9.758;2022-11-14T00:24:41;101265.91;;;6.80;86.47
60465;BME280;46314;52.392;9.758;2022-11-14T00:27:08;101256.09;;;6.62;87.31
60465;BME280;46314;52.392;9.758;2022-11-14T00:29:34;101261.34;;;6.96;87.11
60465;BME280;46314;52.392;9.758;2022-11-14T00:32:01;101259.50;;;7.02;86.39
60465;BME280;46314;52.392;9.758;2022-11-14T00:34:27;101256.78;;;7.45;85.00
60465;BME280;46314;52.392;9.758;2022-11-14T00:36:54;101258.34;;;6.98;85.85
60465;BME280;46314;52.392;9.758;2022-11-14T00:39:22;101252.00;;;6.97;85.61
60465;BME280;46314;52.392;9.758;2022-11-14T00:41:49;101258.81;;;7.22;85.04
60465;BME280;46314;52.392;9.758;2022-11-14T00:44:16;101255.28;;;6.94;85.86
60465;BME280;46314;52.392;9.758;2022-11-14T00:46:42;101251.03;;;7.14;84.58
60465;BME280;46314;52.392;9.758;2022-11-14T00:49:09;101254.09;;;7.17;85.04
60465;BME280;46314;52.392;9.758;2022-11-14T00:51:36;101246.09;;;6.83;86.02
60465;BME280;46314;52.392;9.758;2022-11-14T00:54:03;101243.28;;;6.78;85.93
60465;BME280;46314;52.392;9.758;2022-11-14T00:56:30;101241.22;;;6.63;86.67
60465;BME280;46314;52.392;9.758;2022-11-14T00:58:57;101242.97;;;6.75;85.82
60465;BME280;46314;52.392;9.758;2022-11-14T01:01:24;101234.16;;;6.46;87.24
60465;BME280;46314;52.392;9.758;2022-11-14T01:03:50;101233.28;;;6.67;86.11
60465;BME280;46314;52.392;9.758;2022-11-14T01:06:18;101221.00;;;6.85;86.56
60465;BME280;46314;52.392;9.758;2022-11-14T01:08:44;101231.00;;;6.91;85.67
60465;BME280;46314;52.392;9.758;2022-11-14T01:11:14;101234.25;;;7.20;84.44
60465;BME280;46314;52.392;9.758;2022-11-14T01:13:43;101232.69;;;6.65;86.49
60465;BME280;46314;52.392;9.758;2022-11-14T01:16:10;101224.59;;;6.53;86.06
60465;BME280;46314;52.392;9.758;2022-11-14T01:18:38;101222.69;;;6.86;85.97
60465;BME280;46314;52.392;9.758;2022-11-14T01:21:05;101218.59;;;6.94;84.97
60465;BME280;46314;52.392;9.758;2022-11-14T01:23:32;101218.81;;;6.87;84.90
60465;BME280;46314;52.392;9.758;2022-11-14T01:26:03;101215.00;;;6.61;85.96
60465;BME280;46314;52.392;9.758;2022-11-14T01:28:30;101210.69;;;6.43;86.48
60465;BME280;46314;52.392;9.758;2022-11-14T01:31:10;101213.47;;;6.75;84.98
60465;BME280;46314;52.392;9.758;2022-11-14T01:33:37;101208.25;;;6.74;85.25
60465;BME280;46314;52.392;9.758;2022-11-14T01:36:05;101208.16;;;6.63;85.50
60465;BME280;46314;52.392;9.758;2022-11-14T01:38:32;101199.16;;;6.78;84.79
60465;BME280;46314;52.392;9.758;2022-11-14T01:40:59;101196.94;;;7.08;83.95
60465;BME280;46314;52.392;9.758;2022-11-14T01:43:31;101203.56;;;7.12;82.95
60465;BME280;46314;52.392;9.758;2022-11-14T01:46:01;101208.47;;;7.05;83.63
60465;BME280;46314;52.392;9.758;2022-11-14T01:48:34;101198.00;;;7.07;83.04
60465;BME280;46314;52.392;9.758;2022-11-14T01:51:09;101199.13;;;7.06;83.09
60465;BME280;46314;52.392;9.758;2022-11-14T01:53:39;101197.09;;;6.96;82.98
60465;BME280;46314;52.392;9.758;2022-11-14T01:56:07;101191.34;;;6.97;83.49
60465;BME280;46314;52.392;9.758;2022-11-14T01:58:38;101194.38;;;6.63;84.88
60465;BME280;46314;52.392;9.758;2022-11-14T02:01:06;101169.94;;;6.45;85.22
60465;BME280;46314;52.392;9.758;2022-11-14T02:03:38;101178.91;;;6.62;85.08
60465;BME280;46314;52.392;9.758;2022-11-14T02:06:06;101171.00;;;6.71;84.68
60465;BME280;46314;52.392;9.758;2022-11-14T02:08:35;101171.22;;;6.64;85.33
60465;BME280;46314;52.392;9.758;2022-11-14T02:11:02;101170.78;;;6.78;83.75
60465;BME280;46314;52.392;9.758;2022-11-14T02:13:28;101166.81;;;6.36;85.86
60465;BME280;46314;52.392;9.758;2022-11-14T02:15:55;101168.03;;;6.78;84.15
60465;BME280;46314;52.392;9.758;2022-11-14T02:18:22;101164.34;;;6.67;84.49
60465;BME280;46314;52.392;9.758;2022-11-14T02:20:50;101169.72;;;6.84;84.56
60465;BME280;46314;52.392;9.758;2022-11-14T02:23:24;101172.63;;;7.05;82.66
60465;BME280;46314;52.392;9.758;2022-11-14T02:25:51;101161.13;;;7.18;81.80
60465;BME280;46314;52.392;9.758;2022-11-14T02:28:17;101166.56;;;7.03;82.59
60465;BME280;46314;52.392;9.758;2022-11-14T02:30:44;101165.94;;;6.95;83.20
60465;BME280;46314;52.392;9.758;2022-11-14T02:33:10;101155.13;;;6.51;84.68
60465;BME280;46314;52.392;9.758;2022-11-14T02:35:37;101161.19;;;6.53;84.90
60465;BME280;46314;52.392;9.758;2022-11-14T02:38:05;101147.00;;;6.72;84.10
60465;BME280;46314;52.392;9.758;2022-11-14T02:40:32;101150.63;;;6.72;84.13
60465;BME280;46314;52.392;9.758;2022-11-14T02:42:58;101141.31;;;7.26;82.68
60465;BME280;46314;52.392;9.758;2022-11-14T02:45:25;101142.56;;;6.66;84.07
60465;BME280;46314;52.392;9.758;2022-11-14T02:47:52;101140.59;;;6.98;83.18
60465;BME280;46314;52.392;9.758;2022-11-14T02:50:18;101138.59;;;6.89;82.85
60465;BME280;46314;52.392;9.758;2022-11-14T02:52:45;101129.94;;;6.75;83.38
60465;BME280;46314;52.392;9.758;2022-11-14T02:55:13;101133.09;;;7.36;82.17
60465;BME280;46314;52.392;9.758;2022-11-14T02:57:40;101134.56;;;7.07;82.16
60465;BME280;46314;52.392;9.758;2022-11-14T03:00:07;101130.50;;;6.77;83.12
60465;BME280;46314;52.392;9.758;2022-11-14T03:02:40;101131.06;;;7.16;82.80
60465;BME280;46314;52.392;9.758;2022-11-14T03:05:07;101126.63;;;7.15;81.84
60465;BME280;46314;52.392;9.758;2022-11-14T03:07:34;101119.72;;;7.13;81.40
60465;BME280;46314;52.392;9.758;2022-11-14T03:10:01;101123.13;;;6.82;83.02
60465;BME280;46314;52.392;9.758;2022-11-14T03:12:29;101120.38;;;6.88;82.55
60465;BME280;46314;52.392;9.758;2022-11-14T03:14:56;101124.53;;;6.90;82.52
60465;BME280;46314;52.392;9.758;2022-11-14T03:17:22;101118.97;;;6.80;82.90
60465;BME280;46314;52.392;9.758;2022-11-14T03:19:49;101121.78;;;6.90;83.00
60465;BME280;46314;52.392;9.758;2022-11-14T03:22:16;101112.81;;;7.10;81.04
60465;BME280;46314;52.392;9.758;2022-11-14T03:24:42;101108.66;;;7.08;80.97
60465;BME280;46314;52.392;9.758;2022-11-14T03:27:09;101107.03;;;7.12;80.93
60465;BME280;46314;52.392;9.758;2022-11-14T03:29:37;101113.09;;;7.14;81.17
60465;BME280;46314;52.392;9.758;2022-11-14T03:32:04;101110.72;;;6.48;83.26
60465;BME280;46314;52.392;9.758;2022-11-14T03:34:30;101107.09;;;6.79;82.70
60465;BME280;46314;52.392;9.758;2022-11-14T03:36:57;101094.38;;;6.73;82.85
60465;BME280;46314;52.392;9.758;2022-11-14T03:39:24;101103.88;;;6.93;82.13
60465;BME280;46314;52.392;9.758;2022-11-14T03:41:50;101100.47;;;6.80;82.30
60465;BME280;46314;52.392;9.758;2022-11-14T03:44:17;101104.00;;;7.13;81.43
60465;BME280;46314;52.392;9.758;2022-11-14T03:46:45;101103.72;;;6.67;82.76
60465;BME280;46314;52.392;9.758;2022-11-14T03:49:11;101099.47;;;6.92;82.33
60465;BME280;46314;52.392;9.758;2022-11-14T03:51:38;101093.66;;;6.88;82.88
60465;BME280;46314;52.392;9.758;2022-11-14T03:54:05;101090.53;;;6.74;83.52
60465;BME280;46314;52.392;9.758;2022-11-14T03:56:31;101084.72;;;6.71;84.14
60465;BME280;46314;52.392;9.758;2022-11-14T03:58:58;101082.53;;;6.73;84.21
60465;BME280;46314;52.392;9.758;2022-11-14T04:01:25;101079.59;;;6.52;83.96
60465;BME280;46314;52.392;9.758;2022-11-14T04:03:53;101068.50;;;6.79;83.61
60465;BME280;46314;52.392;9.758;2022-11-14T04:06:19;101068.72;;;6.73;84.07
60465;BME280;46314;52.392;9.758;2022-11-14T04:08:46;101054.41;;;6.71;84.49
60465;BME280;46314;52.392;9.758;2022-11-14T04:11:12;101054.69;;;6.74;84.01
60465;BME280;46314;52.392;9.758;2022-11-14T04:13:39;101048.91;;;7.29;82.22
60465;BME280;46314;52.392;9.758;2022-11-14T04:16:06;101034.47;;;6.58;83.62
60465;BME280;46314;52.392;9.758;2022-11-14T04:18:33;101035.22;;;6.96;83.46
60465;BME280;46314;52.392;9.758;2022-11-14T04:21:00;101037.13;;;6.91;83.27
60465;BME280;46314;52.392;9.758;2022-11-14T04:23:27;101042.03;;;6.78;83.98
60465;BME280;46314;52.392;9.758;2022-11-14T04:25:55;101052.22;;;6.78;84.29
60465;BME280;46314;52.392;9.758;2022-11-14T04:28:22;101042.06;;;7.52;80.75
60465;BME280;46314;52.392;9.758;2022-11-14T04:30:49;101038.78;;;6.87;83.93
60465;BME280;46314;52.392;9.758;2022-11-14T04:33:16;101055.03;;;6.83;83.34
60465;BME280;46314;52.392;9.758;2022-11-14T04:35:42;101042.41;;;6.50;84.67
60465;BME280;46314;52.392;9.758;2022-11-14T04:38:10;101050.47;;;6.61;85.46
60465;BME280;46314;52.392;9.758;2022-11-14T04:40:37;101044.34;;;6.54;84.83
60465;BME280;46314;52.392;9.758;2022-11-14T04:43:04;101044.69;;;6.63;84.59
60465;BME280;46314;52.392;9.758;2022-11-14T04:45:31;101048.69;;;6.82;84.05
60465;BME280;46314;52.392;9.758;2022-11-14T04:47:57;101049.81;;;6.87;83.97
60465;BME280;46314;52.392;9.758;2022-11-14T04:50:24;101044.97;;;6.61;83.77
60465;BME280;46314;52.392;9.758;2022-11-14T04:52:51;101048.22;;;6.53;85.39
60465;BME280;46314;52.392;9.758;2022-11-14T04:55:19;101045.19;;;7.03;83.80
60465;BME280;46314;52.392;9.758;2022-11-14T04:57:46;101037.88;;;6.76;84.16
60465;BME280;46314;52.392;9.758;2022-11-14T05:00:13;101024.69;;;6.83;84.36
60465;BME280;46314;52.392;9.758;2022-11-14T05:02:40;101025.31;;;6.95;84.39
60465;BME280;46314;52.392;9.758;2022-11-14T05:05:07;101019.22;;;6.88;82.90
60465;BME280;46314;52.392;9.758;2022-11-14T05:07:34;101020.34;;;6.97;83.84
60465;BME280;46314;52.392;9.758;2022-11-14T05:10:01;101015.75;;;6.60;85.61
60465;BME280;46314;52.392;9.758;2022-11-14T05:12:29;101007.16;;;6.57;85.17
60465;BME280;46314;52.392;9.758;2022-11-14T05:14:55;101002.09;;;6.86;84.70
60465;BME280;46314;52.392;9.758;2022-11-14T05:17:22;101000.91;;;6.67;84.29
60465;BME280;46314;52.392;9.758;2022-11-14T05:19:49;101015.41;;;7.05;84.07
60465;BME280;46314;52.392;9.758;2022-11-14T05:22:16;101007.41;;;7.03;83.89
60465;BME280;46314;52.392;9.758;2022-11-14T05:24:43;101004.06;;;6.96;84.57
60465;BME280;46314;52.392;9.758;2022-11-14T05:27:09;101008.13;;;6.78;83.76
60465;BME280;46314;52.392;9.758;2022-11-14T05:29:37;100999.94;;;6.93;84.28
60465;BME280;46314;52.392;9.758;2022-11-14T05:32:04;101002.56;;;6.73;84.26
60465;BME280;46314;52.392;9.758;2022-11-14T05:34:31;101005.50;;;7.14;83.58
60465;BME280;46314;52.392;9.758;2022-11-14T05:36:57;101002.44;;;7.05;83.21
60465;BME280;46314;52.392;9.758;2022-11-14T05:39:24;101005.41;;;6.88;84.13
60465;BME280;46314;52.392;9.758;2022-11-14T05:41:51;101002.41;;;7.00;83.73
60465;BME280;46314;52.392;9.758;2022-11-14T05:44:17;100998.97;;;6.67;84.52
60465;BME280;46314;52.392;9.758;2022-11-14T05:46:45;101004.22;;;6.31;86.33
60465;BME280;46314;52.392;9.758;2022-11-14T05:49:12;101009.69;;;6.26;86.64
60465;BME280;46314;52.392;9.758;2022-11-14T05:51:44;101000.16;;;6.39;86.47
60465;BME280;46314;52.392;9.758;2022-11-14T05:54:11;101000.34;;;6.70;85.26
60465;BME280;46314;52.392;9.758;2022-11-14T05:56:37;101006.41;;;6.72;83.97
60465;BME280;46314;52.392;9.758;2022-11-14T05:59:04;100997.16;;;6.88;83.70
60465;BME280;46314;52.392;9.758;2022-11-14T06:01:31;100993.31;;;6.94;82.83
60465;BME280;46314;52.392;9.758;2022-11-14T06:03:59;100994.75;;;7.12;83.02
60465;BME280;46314;52.392;9.758;2022-11-14T06:06:25;101003.91;;;7.18;82.32
60465;BME280;46314;52.392;9.758;2022-11-14T06:08:52;101004.81;;;6.76;83.79
60465;BME280;46314;52.392;9.758;2022-11-14T06:11:19;100996.66;;;7.07;82.77
60465;BME280;46314;52.392;9.758;2022-11-14T06:13:46;100992.47;;;6.94;83.52
60465;BME280;46314;52.392;9.758;2022-11-14T06:16:14;100994.44;;;6.98;83.17
60465;BME280;46314;52.392;9.758;2022-11-14T06:18:41;101000.56;;;7.11;82.66
60465;BME280;46314;52.392;9.758;2022-11-14T06:21:12;101003.03;;;6.59;83.86
60465;BME280;46314;52.392;9.758;2022-11-14T06:23:39;101004.72;;;6.60;85.10
60465;BME280;46314;52.392;9.758;2022-11-14T06:26:11;101000.25;;;6.49;85.64
60465;BME280;46314;52.392;9.758;2022-11-14T06:28:40;100983.25;;;6.68;85.75
60465;BME280;46314;52.392;9.758;2022-11-14T06:31:06;101000.06;;;6.23;86.62
60465;BME280;46314;52.392;9.758;2022-11-14T06:33:34;100992.91;;;6.65;84.59
60465;BME280;46314;52.392;9.758;2022-11-14T06:36:04;100992.00;;;6.59;85.05
60465;BME280;46314;52.392;9.758;2022-11-14T06:38:34;100995.41;;;6.29;85.28
60465;BME280;46314;52.392;9.758;2022-11-14T06:41:02;100997.50;;;6.49;84.48
60465;BME280;46314;52.392;9.758;2022-11-14T06:43:31;100981.25;;;6.53;84.97
60465;BME280;46314;52.392;9.758;2022-11-14T06:45:58;100980.75;;;7.29;82.81
60465;BME280;46314;52.392;9.758;2022-11-14T06:48:25;100982.63;;;7.13;82.16
60465;BME280;46314;52.392;9.758;2022-11-14T06:50:52;100988.69;;;7.10;82.03
60465;BME280;46314;52.392;9.758;2022-11-14T06:53:19;100987.28;;;7.03;82.28
60465;BME280;46314;52.392;9.758;2022-11-14T06:55:56;100995.06;;;7.26;81.56
60465;BME280;46314;52.392;9.758;2022-11-14T06:58:24;100987.38;;;7.23;80.90
60465;BME280;46314;52.392;9.758;2022-11-14T07:00:51;100982.81;;;6.96;82.11
60465;BME280;46314;52.392;9.758;2022-11-14T07:03:18;100985.22;;;6.72;84.02
60465;BME280;46314;52.392;9.758;2022-11-14T07:05:44;100992.31;;;7.16;81.67
60465;BME280;46314;52.392;9.758;2022-11-14T07:08:11;100997.81;;;7.21;81.78
60465;BME280;46314;52.392;9.758;2022-11-14T07:10:43;100992.16;;;6.85;82.98
60465;BME280;46314;52.392;9.758;2022-11-14T07:13:11;100992.41;;;6.78;83.10
60465;BME280;46314;52.392;9.758;2022-11-14T07:15:38;100977.84;;;6.88;83.42
60465;BME280;46314;52.392;9.758;2022-11-14T07:18:05;100991.19;;;7.17;81.51
60465;BME280;46314;52.392;9.758;2022-11-14T07:20:31;100989.44;;;6.90;82.33
60465;BME280;46314;52.392;9.758;2022-11-14T07:22:58;100987.31;;;7.08;81.43
60465;BME280;46314;52.392;9.758;2022-11-14T07:25:25;100979.63;;;7.20;82.01
60465;BME280;46314;52.392;9.758;2022-11-14T07:27:51;100984.09;;;7.47;80.63
60465;BME280;46314;52.392;9.758;2022-11-14T07:30:19;100985.91;;;7.10;81.39
60465;BME280;46314;52.392;9.758;2022-11-14T07:32:46;100987.84;;;7.05;81.23
60465;BME280;46314;52.392;9.758;2022-11-14T07:35:12;100972.25;;;6.73;82.54
60465;BME280;46314;52.392;9.758;2022-11-14T07:37:39;100968.38;;;6.69;83.34
60465;BME280;46314;52.392;9.758;2022-11-14T07:40:06;100968.97;;;6.76;83.83
60465;BME280;46314;52.392;9.758;2022-11-14T07:42:33;100962.53;;;6.55;83.83
60465;BME280;46314;52.392;9.758;2022-11-14T07:45:00;100970.16;;;6.95;82.70
60465;BME280;46314;52.392;9.758;2022-11-14T07:47:27;100978.50;;;7.21;81.02
60465;BME280;46314;52.392;9.758;2022-11-14T07:49:54;100985.03;;;6.94;81.21
60465;BME280;46314;52.392;9.758;2022-11-14T07:52:21;100985.59;;;6.96;81.95
60465;BME280;46314;52.392;9.758;2022-11-14T07:54:47;100988.38;;;7.07;81.40
60465;BME280;46314;52.392;9.758;2022-11-14T07:57:14;100995.03;;;7.11;81.46
60465;BME280;46314;52.392;9.758;2022-11-14T07:59:40;100989.81;;;7.14;80.36
60465;BME280;46314;52.392;9.758;2022-11-14T08:02:11;100974.53;;;6.86;82.06
60465;BME280;46314;52.392;9.758;2022-11-14T08:04:39;100982.44;;;7.35;80.81
60465;BME280;46314;52.392;9.758;2022-11-14T08:07:05;100990.88;;;7.08;80.84
60465;BME280;46314;52.392;9.758;2022-11-14T08:09:32;100991.03;;;7.49;80.64
60465;BME280;46314;52.392;9.758;2022-11-14T08:11:58;100988.25;;;7.44;78.90
60465;BME280;46314;52.392;9.758;2022-11-14T08:14:25;100974.63;;;7.12;80.74
60465;BME280;46314;52.392;9.758;2022-11-14T08:16:52;100977.41;;;7.22;80.70
60465;BME280;46314;52.392;9.758;2022-11-14T08:19:18;100979.16;;;6.80;82.97
60465;BME280;46314;52.392;9.758;2022-11-14T08:21:46;100979.94;;;6.66;83.76
60465;BME280;46314;52.392;9.758;2022-11-14T08:24:12;100972.09;;;6.95;82.72
60465;BME280;46314;52.392;9.758;2022-11-14T08:26:39;100973.63;;;7.49;80.73
60465;BME280;46314;52.392;9.758;2022-11-14T08:29:05;100970.22;;;7.11;81.77
60465;BME280;46314;52.392;9.758;2022-11-14T08:31:32;100973.09;;;7.57;80.02
60465;BME280;46314;52.392;9.758;2022-11-14T08:33:58;100975.84;;;7.57;79.94
60465;BME280;46314;52.392;9.758;2022-11-14T08:36:25;100981.00;;;7.23;80.73
60465;BME280;46314;52.392;9.758;2022-11-14T08:38:52;100978.22;;;7.17;81.96
60465;BME280;46314;52.392;9.758;2022-11-14T08:41:25;100976.31;;;7.18;81.08
60465;BME280;46314;52.392;9.758;2022-11-14T08:43:52;100976.63;;;7.42;80.10
60465;BME280;46314;52.392;9.758;2022-11-14T08:46:18;100985.75;;;7.37;80.59
60465;BME280;46314;52.392;9.758;2022-11-14T08:48:45;100978.63;;;7.62;79.48
60465;BME280;46314;52.392;9.758;2022-11-14T08:51:11;100987.38;;;7.38;79.57
60465;BME280;46314;52.392;9.758;2022-11-14T08:53:38;100983.72;;;7.07;81.81
60465;BME280;46314;52.392;9.758;2022-11-14T08:56:07;100980.13;;;7.07;81.86
60465;BME280;46314;52.392;9.758;2022-11-14T08:58:33;100987.34;;;7.18;81.47
60465;BME280;46314;52.392;9.758;2022-11-14T09:01:00;100975.16;;;7.14;81.00
60465;BME280;46314;52.392;9.758;2022-11-14T09:03:27;100976.94;;;7.41;81.15
60465;BME280;46314;52.392;9.758;2022-11-14T09:05:53;100982.41;;;7.30;80.00
60465;BME280;46314;52.392;9.758;2022-11-14T09:08:20;100968.06;;;7.23;80.39
60465;BME280;46314;52.392;9.758;2022-11-14T09:10:47;100970.22;;;7.11;81.04
60465;BME280;46314;52.392;9.758;2022-11-14T09:13:14;100970.63;;;7.66;79.26
60465;BME280;46314;52.392;9.758;2022-11-14T09:15:41;100974.63;;;7.12;82.25
60465;BME280;46314;52.392;9.758;2022-11-14T09:18:08;100971.44;;;7.76;78.80
60465;BME280;46314;52.392;9.758;2022-11-14T09:20:35;100973.31;;;7.25;80.14
60465;BME280;46314;52.392;9.758;2022-11-14T09:23:06;100969.22;;;7.48;80.29
60465;BME280;46314;52.392;9.758;2022-11-14T09:25:32;100976.06;;;7.35;79.55
60465;BME280;46314;52.392;9.758;2022-11-14T09:28:02;100976.34;;;7.33;79.48
60465;BME280;46314;52.392;9.758;2022-11-14T09:30:30;100970.25;;;7.26;79.92
60465;BME280;46314;52.392;9.758;2022-11-14T09:32:58;100962.53;;;7.33;79.69
60465;BME280;46314;52.392;9.758;2022-11-14T09:35:25;100955.41;;;7.63;78.39
60465;BME280;46314;52.392;9.758;2022-11-14T09:37:58;100958.53;;;6.83;81.29
60465;BME280;46314;52.392;9.758;2022-11-14T09:40:24;100951.31;;;6.77;82.06
60465;BME280;46314;52.392;9.758;2022-11-14T09:43:01;100953.09;;;7.14;80.47
60465;BME280;46314;52.392;9.758;2022-11-14T09:45:33;100948.75;;;7.28;79.45
60465;BME280;46314;52.392;9.758;2022-11-14T09:48:05;100938.00;;;7.32;78.34
60465;BME280;46314;52.392;9.758;2022-11-14T09:50:37;100926.09;;;7.11;79.34
60465;BME280;46314;52.392;9.758;2022-11-14T09:53:10;100930.56;;;7.37;79.06
60465;BME280;46314;52.392;9.758;2022-11-14T09:55:39;100921.72;;;7.46;79.24
60465;BME280;46314;52.392;9.758;2022-11-14T09:58:12;100927.13;;;6.94;80.20
60465;BME280;46314;52.392;9.758;2022-11-14T10:00:49;100920.28;;;7.17;79.73
60465;BME280;46314;52.392;9.758;2022-11-14T10:03:21;100918.19;;;6.61;81.28
60465;BME280;46314;52.392;9.758;2022-11-14T10:06:00;100897.47;;;6.54;82.47
60465;BME280;46314;52.392;9.758;2022-11-14T10:08:44;100898.38;;;6.75;81.11
60465;BME280;46314;52.392;9.758;2022-11-14T10:11:20;100895.63;;;6.75;81.34
60465;BME280;46314;52.392;9.758;2022-11-14T10:16:43;100902.94;;;7.27;79.16
60465;BME280;46314;52.392;9.758;2022-11-14T10:19:19;100897.28;;;6.76;81.01
60465;BME280;46314;52.392;9.758;2022-11-14T10:22:00;100902.81;;;6.81;81.35
60465;BME280;46314;52.392;9.758;2022-11-14T10:24:43;100888.78;;;6.93;80.79
60465;BME280;46314;52.392;9.758;2022-11-14T10:27:16;100898.50;;;7.21;79.93
60465;BME280;46314;52.392;9.758;2022-11-14T10:30:03;100894.13;;;7.35;78.97
60465;BME280;46314;52.392;9.758;2022-11-14T10:35:28;100892.84;;;6.70;81.67
60465;BME280;46314;52.392;9.758;2022-11-14T10:38:06;100899.38;;;7.27;79.73
60465;BME280;46314;52.392;9.758;2022-11-14T10:40:38;100892.50;;;7.60;78.15
60465;BME280;46314;52.392;9.758;2022-11-14T10:43:16;100891.84;;;7.01;79.95
60465;BME280;46314;52.392;9.758;2022-11-14T10:45:49;100878.88;;;6.92;80.67
60465;BME280;46314;52.392;9.758;2022-11-14T10:48:27;100886.91;;;7.14;80.19
60465;BME280;46314;52.392;9.758;2022-11-14T10:50:57;100878.41;;;7.56;78.70
60465;BME280;46314;52.392;9.758;2022-11-14T10:53:41;100873.66;;;7.21;79.32
60465;BME280;46314;52.392;9.758;2022-11-14T10:56:10;100872.06;;;7.41;78.35
60465;BME280;46314;52.392;9.758;2022-11-14T10:58:37;100877.19;;;6.91;80.88
60465;BME280;46314;52.392;9.758;2022-11-14T11:01:35;100872.88;;;7.26;80.12
60465;BME280;46314;52.392;9.758;2022-11-14T11:04:18;100881.41;;;7.24;79.87
60465;BME280;46314;52.392;9.758;2022-11-14T11:06:46;100889.16;;;7.43;79.01
60465;BME280;46314;52.392;9.758;2022-11-14T11:09:15;100867.06;;;7.17;79.89
60465;BME280;46314;52.392;9.758;2022-11-14T11:11:53;100870.31;;;6.88;81.53
60465;BME280;46314;52.392;9.758;2022-11-14T11:14:20;100886.38;;;7.17;80.57
60465;BME280;46314;52.392;9.758;2022-11-14T11:16:46;100875.00;;;6.98;80.46
60465;BME280;46314;52.392;9.758;2022-11-14T11:19:21;100866.75;;;7.08;80.57
60465;BME280;46314;52.392;9.758;2022-11-14T11:21:50;100871.47;;;7.08;80.76
60465;BME280;46314;52.392;9.758;2022-11-14T11:24:30;100869.56;;;7.54;78.49
60465;BME280;46314;52.392;9.758;2022-11-14T11:27:18;100862.94;;;7.14;81.08
60465;BME280;46314;52.392;9.758;2022-11-14T11:29:45;100864.31;;;7.32;79.92
60465;BME280;46314;52.392;9.758;2022-11-14T11:32:24;100864.06;;;7.39;79.15
60465;BME280;46314;52.392;9.758;2022-11-14T11:34:53;100871.22;;;7.66;77.35
60465;BME280;46314;52.392;9.758;2022-11-14T11:37:23;100874.25;;;7.33;78.65
60465;BME280;46314;52.392;9.758;2022-11-14T11:39:53;100872.59;;;7.22;79.22
60465;BME280;46314;52.392;9.758;2022-11-14T11:42:24;100872.00;;;7.05;80.53
60465;BME280;46314;52.392;9.758;2022-11-14T11:44:54;100856.34;;;7.46;79.34
60465;BME280;46314;52.392;9.758;2022-11-14T11:47:23;100845.28;;;7.62;78.42
60465;BME280;46314;52.392;9.758;2022-11-14T11:49:53;100844.66;;;8.06;76.87
60465;BME280;46314;52.392;9.758;2022-11-14T11:52:27;100838.94;;;7.20;80.10
60465;BME280;46314;52.392;9.758;2022-11-14T11:55:00;100838.94;;;7.20;80.21
60465;BME280;46314;52.392;9.758;2022-11-14T11:57:32;100836.19;;;7.30;80.08
60465;BME280;46314;52.392;9.758;2022-11-14T12:00:05;100831.75;;;7.19;80.16
60465;BME280;46314;52.392;9.758;2022-11-14T12:02:32;100824.59;;;7.23;80.73
60465;BME280;46314;52.392;9.758;2022-11-14T12:05:04;100818.50;;;7.21;80.77
60465;BME280;46314;52.392;9.758;2022-11-14T12:07:37;100820.38;;;7.97;78.30
60465;BME280;46314;52.392;9.758;2022-11-14T12:10:11;100828.41;;;7.78;78.19
60465;BME280;46314;52.392;9.758;2022-11-14T12:12:55;100819.50;;;8.12;77.11
60465;BME280;46314;52.392;9.758;2022-11-14T12:15:27;100821.97;;;8.09;77.19
60465;BME280;46314;52.392;9.758;2022-11-14T12:18:22;100835.00;;;7.88;77.87
60465;BME280;46314;52.392;9.758;2022-11-14T12:21:09;100823.22;;;7.51;78.93
60465;BME280;46314;52.392;9.758;2022-11-14T12:23:51;100814.13;;;7.35;80.59
60465;BME280;46314;52.392;9.758;2022-11-14T12:26:33;100820.72;;;7.50;79.60
60465;BME280;46314;52.392;9.758;2022-11-14T12:29:25;100823.44;;;7.81;78.85
60465;BME280;46314;52.392;9.758;2022-11-14T12:31:58;100821.81;;;7.38;80.65
60465;BME280;46314;52.392;9.758;2022-11-14T12:34:31;100823.75;;;7.17;81.14
60465;BME280;46314;52.392;9.758;2022-11-14T12:37:06;100820.97;;;7.23;80.73
60465;BME280;46314;52.392;9.758;2022-11-14T12:39:34;100821.53;;;7.04;81.96
60465;BME280;46314;52.392;9.758;2022-11-14T12:42:01;100824.59;;;7.13;81.57
60465;BME280;46314;52.392;9.758;2022-11-14T12:44:36;100816.03;;;7.35;80.95
60465;BME280;46314;52.392;9.758;2022-11-14T12:47:18;100817.66;;;7.77;79.24
60465;BME280;46314;52.392;9.758;2022-11-14T12:50:00;100814.56;;;8.04;77.77
60465;BME280;46314;52.392;9.758;2022-11-14T12:52:46;100803.78;;;8.03;77.72
60465;BME280;46314;52.392;9.758;2022-11-14T12:58:21;100794.09;;;8.10;77.64
60465;BME280;46314;52.392;9.758;2022-11-14T13:01:06;100795.97;;;8.25;76.53
60465;BME280;46314;52.392;9.758;2022-11-14T13:03:44;100783.63;;;8.07;77.19
60465;BME280;46314;52.392;9.758;2022-11-14T13:06:18;100777.44;;;8.31;76.57
60465;BME280;46314;52.392;9.758;2022-11-14T13:09:00;100769.53;;;8.69;74.75
60465;BME280;46314;52.392;9.758;2022-11-14T13:11:35;100772.75;;;8.21;76.81
60465;BME280;46314;52.392;9.758;2022-11-14T13:14:06;100769.91;;;8.47;75.97
60465;BME280;46314;52.392;9.758;2022-11-14T13:16:33;100770.94;;;7.96;78.14
60465;BME280;46314;52.392;9.758;2022-11-14T13:19:02;100776.84;;;8.39;76.83